sensor_id;sensor_type;location;lat;lon;timestamp;temperature;humidity
42867;DHT22;39461;40.948;73.006;2022-08-05T00:01:46;23.40;77.30
42867;DHT22;39461;40.948;73.006;2022-08-05T00:04:21;23.40;77.80
42867;DHT22;39461;40.948;73.006;2022-08-05T00:06:54;23.30;78.00
42867;DHT22;39461;40.948;73.006;2022-08-05T00:09:28;23.30;78.30
42867;DHT22;39461;40.948;73.006;2022-08-05T00:12:04;23.30;78.40
42867;DHT22;39461;40.948;73.006;2022-08-05T00:14:43;23.20;78.40
42867;DHT22;39461;40.948;73.006;2022-08-05T00:17:10;23.20;78.50
42867;DHT22;39461;40.948;73.006;2022-08-05T00:19:42;23.20;78.70
42867;DHT22;39461;40.948;73.006;2022-08-05T00:22:17;23.20;78.90
42867;DHT22;39461;40.948;73.006;2022-08-05T00:24:46;23.20;78.50
42867;DHT22;39461;40.948;73.006;2022-08-05T00:27:19;23.20;78.60
42867;DHT22;39461;40.948;73.006;2022-08-05T00:29:55;23.30;78.90
42867;DHT22;39461;40.948;73.006;2022-08-05T00:32:28;23.20;79.60
42867;DHT22;39461;40.948;73.006;2022-08-05T00:34:56;23.20;79.70
42867;DHT22;39461;40.948;73.006;2022-08-05T00:37:29;23.20;79.50
42867;DHT22;39461;40.948;73.006;2022-08-05T00:39:56;23.20;79.20
42867;DHT22;39461;40.948;73.006;2022-08-05T00:42:33;23.20;79.30
42867;DHT22;39461;40.948;73.006;2022-08-05T00:45:08;23.10;79.70
42867;DHT22;39461;40.948;73.006;2022-08-05T00:47:41;23.10;80.10
42867;DHT22;39461;40.948;73.006;2022-08-05T00:50:14;23.20;80.10
42867;DHT22;39461;40.948;73.006;2022-08-05T00:52:49;23.20;80.20
42867;DHT22;39461;40.948;73.006;2022-08-05T00:55:25;23.10;80.50
42867;DHT22;39461;40.948;73.006;2022-08-05T00:57:59;23.20;80.80
42867;DHT22;39461;40.948;73.006;2022-08-05T01:00:32;23.30;80.90
42867;DHT22;39461;40.948;73.006;2022-08-05T01:03:05;23.20;81.10
42867;DHT22;39461;40.948;73.006;2022-08-05T01:05:39;23.20;81.30
42867;DHT22;39461;40.948;73.006;2022-08-05T01:08:12;23.20;81.30
42867;DHT22;39461;40.948;73.006;2022-08-05T01:10:55;23.20;81.30
42867;DHT22;39461;40.948;73.006;2022-08-05T01:13:40;23.40;81.20
42867;DHT22;39461;40.948;73.006;2022-08-05T01:17:04;23.40;80.20
42867;DHT22;39461;40.948;73.006;2022-08-05T01:25:23;23.70;78.90
42867;DHT22;39461;40.948;73.006;2022-08-05T01:31:01;24.00;79.70
42867;DHT22;39461;40.948;73.006;2022-08-05T01:33:53;24.00;80.00
42867;DHT22;39461;40.948;73.006;2022-08-05T01:36:31;24.00;80.60
42867;DHT22;39461;40.948;73.006;2022-08-05T01:39:06;24.10;80.90
42867;DHT22;39461;40.948;73.006;2022-08-05T01:41:40;24.20;83.10
42867;DHT22;39461;40.948;73.006;2022-08-05T01:44:15;24.20;83.10
42867;DHT22;39461;40.948;73.006;2022-08-05T01:46:50;24.40;82.00
42867;DHT22;39461;40.948;73.006;2022-08-05T01:49:24;24.50;82.10
42867;DHT22;39461;40.948;73.006;2022-08-05T01:51:57;24.60;83.70
42867;DHT22;39461;40.948;73.006;2022-08-05T01:54:35;24.80;82.40
42867;DHT22;39461;40.948;73.006;2022-08-05T01:57:12;24.80;82.50
42867;DHT22;39461;40.948;73.006;2022-08-05T01:59:47;25.00;81.80
42867;DHT22;39461;40.948;73.006;2022-08-05T02:02:21;25.10;81.00
42867;DHT22;39461;40.948;73.006;2022-08-05T02:05:04;25.30;80.80
42867;DHT22;39461;40.948;73.006;2022-08-05T02:07:39;25.40;79.90
42867;DHT22;39461;40.948;73.006;2022-08-05T02:10:15;25.50;80.00
42867;DHT22;39461;40.948;73.006;2022-08-05T02:12:54;25.70;80.30
42867;DHT22;39461;40.948;73.006;2022-08-05T02:15:35;25.80;79.60
42867;DHT22;39461;40.948;73.006;2022-08-05T02:18:43;25.90;80.60
42867;DHT22;39461;40.948;73.006;2022-08-05T02:21:24;25.90;79.30
42867;DHT22;39461;40.948;73.006;2022-08-05T02:24:08;26.10;79.70
42867;DHT22;39461;40.948;73.006;2022-08-05T02:26:46;26.30;77.50
42867;DHT22;39461;40.948;73.006;2022-08-05T02:29:22;26.40;77.40
42867;DHT22;39461;40.948;73.006;2022-08-05T02:31:56;26.50;78.60
42867;DHT22;39461;40.948;73.006;2022-08-05T02:34:32;26.70;77.60
42867;DHT22;39461;40.948;73.006;2022-08-05T02:37:08;26.80;76.30
42867;DHT22;39461;40.948;73.006;2022-08-05T02:39:44;26.90;76.10
42867;DHT22;39461;40.948;73.006;2022-08-05T02:42:20;27.00;74.90
42867;DHT22;39461;40.948;73.006;2022-08-05T02:44:54;27.20;75.50
42867;DHT22;39461;40.948;73.006;2022-08-05T02:47:32;27.40;76.30
42867;DHT22;39461;40.948;73.006;2022-08-05T02:50:09;27.50;74.70
42867;DHT22;39461;40.948;73.006;2022-08-05T02:52:47;27.50;74.10
42867;DHT22;39461;40.948;73.006;2022-08-05T02:55:21;27.70;72.80
42867;DHT22;39461;40.948;73.006;2022-08-05T02:57:55;27.70;72.50
42867;DHT22;39461;40.948;73.006;2022-08-05T03:00:24;27.90;73.70
42867;DHT22;39461;40.948;73.006;2022-08-05T03:02:56;27.90;74.00
42867;DHT22;39461;40.948;73.006;2022-08-05T03:05:23;28.00;73.70
42867;DHT22;39461;40.948;73.006;2022-08-05T03:07:56;28.20;73.00
42867;DHT22;39461;40.948;73.006;2022-08-05T03:10:25;28.40;72.40
42867;DHT22;39461;40.948;73.006;2022-08-05T03:12:52;28.50;72.40
42867;DHT22;39461;40.948;73.006;2022-08-05T03:15:26;28.50;71.00
42867;DHT22;39461;40.948;73.006;2022-08-05T03:17:58;28.70;70.40
42867;DHT22;39461;40.948;73.006;2022-08-05T03:20:25;28.80;70.00
42867;DHT22;39461;40.948;73.006;2022-08-05T03:23:00;29.00;69.00
42867;DHT22;39461;40.948;73.006;2022-08-05T03:25:36;29.10;69.20
42867;DHT22;39461;40.948;73.006;2022-08-05T03:28:10;29.30;69.10
42867;DHT22;39461;40.948;73.006;2022-08-05T03:30:46;29.40;67.60
42867;DHT22;39461;40.948;73.006;2022-08-05T03:33:19;29.50;68.90
42867;DHT22;39461;40.948;73.006;2022-08-05T03:35:58;29.60;69.00
42867;DHT22;39461;40.948;73.006;2022-08-05T03:38:32;29.70;67.90
42867;DHT22;39461;40.948;73.006;2022-08-05T03:41:00;29.80;68.40
42867;DHT22;39461;40.948;73.006;2022-08-05T03:43:29;29.90;67.90
42867;DHT22;39461;40.948;73.006;2022-08-05T03:46:03;30.00;68.30
42867;DHT22;39461;40.948;73.006;2022-08-05T03:48:35;30.00;67.20
42867;DHT22;39461;40.948;73.006;2022-08-05T03:51:12;30.10;66.80
42867;DHT22;39461;40.948;73.006;2022-08-05T03:53:56;30.20;68.70
42867;DHT22;39461;40.948;73.006;2022-08-05T03:56:37;30.30;68.40
42867;DHT22;39461;40.948;73.006;2022-08-05T03:59:20;30.40;67.00
42867;DHT22;39461;40.948;73.006;2022-08-05T04:01:55;30.50;65.40
42867;DHT22;39461;40.948;73.006;2022-08-05T04:04:33;30.40;65.10
42867;DHT22;39461;40.948;73.006;2022-08-05T04:07:09;30.40;64.50
42867;DHT22;39461;40.948;73.006;2022-08-05T04:09:43;30.30;64.90
42867;DHT22;39461;40.948;73.006;2022-08-05T04:12:16;30.30;65.20
42867;DHT22;39461;40.948;73.006;2022-08-05T04:14:51;30.40;66.50
42867;DHT22;39461;40.948;73.006;2022-08-05T04:17:24;30.10;64.60
42867;DHT22;39461;40.948;73.006;2022-08-05T04:19:58;30.10;65.10
42867;DHT22;39461;40.948;73.006;2022-08-05T04:22:31;30.10;65.00
42867;DHT22;39461;40.948;73.006;2022-08-05T04:25:04;30.30;65.00
42867;DHT22;39461;40.948;73.006;2022-08-05T04:27:39;30.60;64.70
42867;DHT22;39461;40.948;73.006;2022-08-05T04:30:16;30.80;65.10
42867;DHT22;39461;40.948;73.006;2022-08-05T04:32:49;31.00;64.80
42867;DHT22;39461;40.948;73.006;2022-08-05T04:35:24;31.10;64.30
42867;DHT22;39461;40.948;73.006;2022-08-05T04:37:53;31.20;63.20
42867;DHT22;39461;40.948;73.006;2022-08-05T04:40:26;31.20;63.00
42867;DHT22;39461;40.948;73.006;2022-08-05T04:43:03;31.30;64.10
42867;DHT22;39461;40.948;73.006;2022-08-05T04:45:36;31.40;63.20
42867;DHT22;39461;40.948;73.006;2022-08-05T04:48:13;31.40;62.70
42867;DHT22;39461;40.948;73.006;2022-08-05T04:50:49;31.30;62.20
42867;DHT22;39461;40.948;73.006;2022-08-05T04:53:23;31.30;61.50
42867;DHT22;39461;40.948;73.006;2022-08-05T04:55:50;31.40;62.00
42867;DHT22;39461;40.948;73.006;2022-08-05T04:58:23;31.40;62.00
42867;DHT22;39461;40.948;73.006;2022-08-05T05:00:58;31.40;62.20
42867;DHT22;39461;40.948;73.006;2022-08-05T05:03:33;31.30;61.80
42867;DHT22;39461;40.948;73.006;2022-08-05T05:06:12;31.40;61.90
42867;DHT22;39461;40.948;73.006;2022-08-05T05:08:45;31.50;62.50
42867;DHT22;39461;40.948;73.006;2022-08-05T05:11:19;31.50;62.40
42867;DHT22;39461;40.948;73.006;2022-08-05T05:13:51;31.40;62.20
42867;DHT22;39461;40.948;73.006;2022-08-05T05:16:20;31.40;63.00
42867;DHT22;39461;40.948;73.006;2022-08-05T05:18:55;31.50;62.40
42867;DHT22;39461;40.948;73.006;2022-08-05T05:21:24;31.50;62.90
42867;DHT22;39461;40.948;73.006;2022-08-05T05:23:59;31.30;63.60
42867;DHT22;39461;40.948;73.006;2022-08-05T05:26:33;31.20;62.60
42867;DHT22;39461;40.948;73.006;2022-08-05T05:29:06;31.20;63.10
42867;DHT22;39461;40.948;73.006;2022-08-05T05:31:39;31.20;63.30
42867;DHT22;39461;40.948;73.006;2022-08-05T05:34:14;31.20;61.20
42867;DHT22;39461;40.948;73.006;2022-08-05T05:36:50;31.40;61.30
42867;DHT22;39461;40.948;73.006;2022-08-05T05:39:27;31.50;61.60
42867;DHT22;39461;40.948;73.006;2022-08-05T05:42:02;31.70;61.80
42867;DHT22;39461;40.948;73.006;2022-08-05T05:44:36;31.90;62.10
42867;DHT22;39461;40.948;73.006;2022-08-05T05:47:09;31.90;60.20
42867;DHT22;39461;40.948;73.006;2022-08-05T05:49:41;31.90;59.20
42867;DHT22;39461;40.948;73.006;2022-08-05T05:52:08;32.10;60.10
42867;DHT22;39461;40.948;73.006;2022-08-05T05:55:07;32.20;61.30
42867;DHT22;39461;40.948;73.006;2022-08-05T05:57:46;32.30;61.30
42867;DHT22;39461;40.948;73.006;2022-08-05T06:00:17;32.40;61.00
42867;DHT22;39461;40.948;73.006;2022-08-05T06:02:46;32.30;60.40
42867;DHT22;39461;40.948;73.006;2022-08-05T06:05:20;32.40;60.50
42867;DHT22;39461;40.948;73.006;2022-08-05T06:07:54;32.40;60.10
42867;DHT22;39461;40.948;73.006;2022-08-05T06:10:29;32.50;60.20
42867;DHT22;39461;40.948;73.006;2022-08-05T06:13:04;32.50;60.10
42867;DHT22;39461;40.948;73.006;2022-08-05T06:16:03;32.50;60.30
42867;DHT22;39461;40.948;73.006;2022-08-05T06:18:38;32.50;59.80
42867;DHT22;39461;40.948;73.006;2022-08-05T06:21:13;32.40;60.00
42867;DHT22;39461;40.948;73.006;2022-08-05T06:23:50;32.50;59.10
42867;DHT22;39461;40.948;73.006;2022-08-05T06:26:24;32.60;59.40
42867;DHT22;39461;40.948;73.006;2022-08-05T06:29:02;32.60;58.00
42867;DHT22;39461;40.948;73.006;2022-08-05T06:31:36;32.50;58.00
42867;DHT22;39461;40.948;73.006;2022-08-05T06:34:11;32.50;57.90
42867;DHT22;39461;40.948;73.006;2022-08-05T06:36:46;32.50;59.00
42867;DHT22;39461;40.948;73.006;2022-08-05T06:39:25;32.60;59.70
42867;DHT22;39461;40.948;73.006;2022-08-05T06:42:00;32.60;60.00
42867;DHT22;39461;40.948;73.006;2022-08-05T06:44:35;32.60;61.00
42867;DHT22;39461;40.948;73.006;2022-08-05T06:47:09;32.80;61.70
42867;DHT22;39461;40.948;73.006;2022-08-05T06:49:46;32.90;61.10
42867;DHT22;39461;40.948;73.006;2022-08-05T06:52:13;32.90;60.50
42867;DHT22;39461;40.948;73.006;2022-08-05T06:54:39;32.90;61.40
42867;DHT22;39461;40.948;73.006;2022-08-05T06:57:13;32.90;61.60
42867;DHT22;39461;40.948;73.006;2022-08-05T06:59:49;32.70;61.50
42867;DHT22;39461;40.948;73.006;2022-08-05T07:02:24;32.70;61.30
42867;DHT22;39461;40.948;73.006;2022-08-05T07:04:58;32.70;61.90
42867;DHT22;39461;40.948;73.006;2022-08-05T07:07:32;32.80;61.30
42867;DHT22;39461;40.948;73.006;2022-08-05T07:10:06;32.70;60.90
42867;DHT22;39461;40.948;73.006;2022-08-05T07:12:40;32.70;61.60
42867;DHT22;39461;40.948;73.006;2022-08-05T07:15:31;32.80;62.40
42867;DHT22;39461;40.948;73.006;2022-08-05T07:18:24;32.70;62.40
42867;DHT22;39461;40.948;73.006;2022-08-05T07:21:22;32.70;61.80
42867;DHT22;39461;40.948;73.006;2022-08-05T07:23:55;32.70;61.40
42867;DHT22;39461;40.948;73.006;2022-08-05T07:26:30;32.70;61.40
42867;DHT22;39461;40.948;73.006;2022-08-05T07:28:56;32.80;61.00
42867;DHT22;39461;40.948;73.006;2022-08-05T07:31:30;32.70;61.30
42867;DHT22;39461;40.948;73.006;2022-08-05T07:34:04;32.80;61.40
42867;DHT22;39461;40.948;73.006;2022-08-05T07:36:40;32.90;61.70
42867;DHT22;39461;40.948;73.006;2022-08-05T07:39:15;32.90;60.60
42867;DHT22;39461;40.948;73.006;2022-08-05T07:41:49;33.00;61.70
42867;DHT22;39461;40.948;73.006;2022-08-05T07:44:22;33.10;60.10
42867;DHT22;39461;40.948;73.006;2022-08-05T07:46:58;33.20;61.60
42867;DHT22;39461;40.948;73.006;2022-08-05T07:49:36;33.10;62.00
42867;DHT22;39461;40.948;73.006;2022-08-05T07:52:04;33.10;62.00
42867;DHT22;39461;40.948;73.006;2022-08-05T07:54:31;32.90;61.50
42867;DHT22;39461;40.948;73.006;2022-08-05T07:57:03;32.70;61.30
42867;DHT22;39461;40.948;73.006;2022-08-05T08:00:02;32.70;60.70
42867;DHT22;39461;40.948;73.006;2022-08-05T08:02:37;32.80;60.40
42867;DHT22;39461;40.948;73.006;2022-08-05T08:05:11;32.80;60.70
42867;DHT22;39461;40.948;73.006;2022-08-05T08:07:45;32.90;61.00
42867;DHT22;39461;40.948;73.006;2022-08-05T08:10:22;33.10;60.10
42867;DHT22;39461;40.948;73.006;2022-08-05T08:13:02;32.90;59.30
42867;DHT22;39461;40.948;73.006;2022-08-05T08:15:36;32.90;59.60
42867;DHT22;39461;40.948;73.006;2022-08-05T08:18:11;32.90;59.40
42867;DHT22;39461;40.948;73.006;2022-08-05T08:20:46;32.70;59.70
42867;DHT22;39461;40.948;73.006;2022-08-05T08:23:22;32.80;60.50
42867;DHT22;39461;40.948;73.006;2022-08-05T08:25:57;32.70;59.70
42867;DHT22;39461;40.948;73.006;2022-08-05T08:28:32;32.70;60.00
42867;DHT22;39461;40.948;73.006;2022-08-05T08:31:07;32.70;59.30
42867;DHT22;39461;40.948;73.006;2022-08-05T08:33:42;32.80;58.40
42867;DHT22;39461;40.948;73.006;2022-08-05T08:36:17;32.80;59.00
42867;DHT22;39461;40.948;73.006;2022-08-05T08:38:51;32.90;58.90
42867;DHT22;39461;40.948;73.006;2022-08-05T08:41:28;32.90;57.80
42867;DHT22;39461;40.948;73.006;2022-08-05T08:44:02;33.00;58.70
42867;DHT22;39461;40.948;73.006;2022-08-05T08:46:37;33.00;58.30
42867;DHT22;39461;40.948;73.006;2022-08-05T08:49:16;33.10;58.00
42867;DHT22;39461;40.948;73.006;2022-08-05T08:51:57;33.20;57.50
42867;DHT22;39461;40.948;73.006;2022-08-05T08:54:31;33.00;57.40
42867;DHT22;39461;40.948;73.006;2022-08-05T08:57:06;32.90;57.60
42867;DHT22;39461;40.948;73.006;2022-08-05T08:59:39;33.10;57.30
42867;DHT22;39461;40.948;73.006;2022-08-05T09:02:17;33.00;57.00
42867;DHT22;39461;40.948;73.006;2022-08-05T09:04:51;33.00;57.20
42867;DHT22;39461;40.948;73.006;2022-08-05T09:07:24;33.10;57.10
42867;DHT22;39461;40.948;73.006;2022-08-05T09:09:59;33.20;57.80
42867;DHT22;39461;40.948;73.006;2022-08-05T09:12:34;33.20;57.90
42867;DHT22;39461;40.948;73.006;2022-08-05T09:15:09;33.30;57.70
42867;DHT22;39461;40.948;73.006;2022-08-05T09:17:45;33.40;57.30
42867;DHT22;39461;40.948;73.006;2022-08-05T09:20:19;33.40;57.40
42867;DHT22;39461;40.948;73.006;2022-08-05T09:23:17;33.50;57.30
42867;DHT22;39461;40.948;73.006;2022-08-05T09:26:06;33.50;56.40
42867;DHT22;39461;40.948;73.006;2022-08-05T09:28:40;33.50;56.50
42867;DHT22;39461;40.948;73.006;2022-08-05T09:31:15;33.50;57.30
42867;DHT22;39461;40.948;73.006;2022-08-05T09:34:06;33.50;56.40
42867;DHT22;39461;40.948;73.006;2022-08-05T09:36:47;33.50;56.00
42867;DHT22;39461;40.948;73.006;2022-08-05T09:39:26;33.60;55.80
42867;DHT22;39461;40.948;73.006;2022-08-05T09:42:02;33.70;55.90
42867;DHT22;39461;40.948;73.006;2022-08-05T09:44:38;33.80;55.20
42867;DHT22;39461;40.948;73.006;2022-08-05T09:47:11;33.60;55.00
42867;DHT22;39461;40.948;73.006;2022-08-05T09:52:30;33.50;55.00
42867;DHT22;39461;40.948;73.006;2022-08-05T09:55:06;33.50;54.90
42867;DHT22;39461;40.948;73.006;2022-08-05T09:57:39;33.50;55.20
42867;DHT22;39461;40.948;73.006;2022-08-05T10:00:18;33.60;55.40
42867;DHT22;39461;40.948;73.006;2022-08-05T10:02:52;33.60;55.50
42867;DHT22;39461;40.948;73.006;2022-08-05T10:05:28;33.50;55.20
42867;DHT22;39461;40.948;73.006;2022-08-05T10:08:04;33.50;56.10
42867;DHT22;39461;40.948;73.006;2022-08-05T10:13:32;33.50;55.00
42867;DHT22;39461;40.948;73.006;2022-08-05T10:16:33;33.70;55.10
42867;DHT22;39461;40.948;73.006;2022-08-05T10:19:08;33.60;54.90
42867;DHT22;39461;40.948;73.006;2022-08-05T10:21:41;33.60;55.60
42867;DHT22;39461;40.948;73.006;2022-08-05T10:24:15;33.60;55.60
42867;DHT22;39461;40.948;73.006;2022-08-05T10:26:49;33.50;55.50
42867;DHT22;39461;40.948;73.006;2022-08-05T10:29:29;33.50;54.80
42867;DHT22;39461;40.948;73.006;2022-08-05T10:32:07;33.60;55.40
42867;DHT22;39461;40.948;73.006;2022-08-05T10:34:44;33.50;54.50
42867;DHT22;39461;40.948;73.006;2022-08-05T10:37:20;33.50;54.30
42867;DHT22;39461;40.948;73.006;2022-08-05T10:39:53;33.50;54.70
42867;DHT22;39461;40.948;73.006;2022-08-05T10:42:28;33.40;54.80
42867;DHT22;39461;40.948;73.006;2022-08-05T10:45:05;33.50;54.40
42867;DHT22;39461;40.948;73.006;2022-08-05T10:47:39;33.50;54.70
42867;DHT22;39461;40.948;73.006;2022-08-05T10:50:11;33.60;54.90
42867;DHT22;39461;40.948;73.006;2022-08-05T10:52:49;33.60;54.90
42867;DHT22;39461;40.948;73.006;2022-08-05T10:55:25;33.60;55.90
42867;DHT22;39461;40.948;73.006;2022-08-05T10:58:08;33.70;54.70
42867;DHT22;39461;40.948;73.006;2022-08-05T11:00:45;33.50;55.30
42867;DHT22;39461;40.948;73.006;2022-08-05T11:18:08;32.80;56.80
42867;DHT22;39461;40.948;73.006;2022-08-05T11:21:29;32.90;56.50
42867;DHT22;39461;40.948;73.006;2022-08-05T11:24:08;32.90;56.20
42867;DHT22;39461;40.948;73.006;2022-08-05T11:26:43;32.90;56.40
42867;DHT22;39461;40.948;73.006;2022-08-05T11:29:38;32.80;56.50
42867;DHT22;39461;40.948;73.006;2022-08-05T11:32:39;32.80;57.00
42867;DHT22;39461;40.948;73.006;2022-08-05T11:35:06;32.70;56.90
42867;DHT22;39461;40.948;73.006;2022-08-05T11:38:01;32.80;57.60
42867;DHT22;39461;40.948;73.006;2022-08-05T11:40:59;32.80;57.90
42867;DHT22;39461;40.948;73.006;2022-08-05T11:43:29;32.80;58.00
42867;DHT22;39461;40.948;73.006;2022-08-05T11:46:08;32.70;58.20
42867;DHT22;39461;40.948;73.006;2022-08-05T11:48:43;32.70;58.70
42867;DHT22;39461;40.948;73.006;2022-08-05T11:51:14;32.60;59.00
42867;DHT22;39461;40.948;73.006;2022-08-05T11:53:43;32.60;58.20
42867;DHT22;39461;40.948;73.006;2022-08-05T11:56:43;32.60;58.10
42867;DHT22;39461;40.948;73.006;2022-08-05T11:59:26;32.50;58.30
42867;DHT22;39461;40.948;73.006;2022-08-05T12:02:04;32.50;57.40
42867;DHT22;39461;40.948;73.006;2022-08-05T12:04:42;32.40;57.60
42867;DHT22;39461;40.948;73.006;2022-08-05T12:07:17;32.40;56.40
42867;DHT22;39461;40.948;73.006;2022-08-05T12:09:53;32.40;56.70
42867;DHT22;39461;40.948;73.006;2022-08-05T12:12:29;32.40;58.10
42867;DHT22;39461;40.948;73.006;2022-08-05T12:15:02;32.30;57.90
42867;DHT22;39461;40.948;73.006;2022-08-05T12:17:35;32.30;58.70
42867;DHT22;39461;40.948;73.006;2022-08-05T12:20:08;32.30;58.80
42867;DHT22;39461;40.948;73.006;2022-08-05T12:22:41;32.30;58.60
42867;DHT22;39461;40.948;73.006;2022-08-05T12:25:14;32.20;58.80
42867;DHT22;39461;40.948;73.006;2022-08-05T12:27:40;32.10;58.80
42867;DHT22;39461;40.948;73.006;2022-08-05T12:30:19;32.10;58.40
42867;DHT22;39461;40.948;73.006;2022-08-05T12:32:54;32.00;58.90
42867;DHT22;39461;40.948;73.006;2022-08-05T12:35:30;32.10;59.20
42867;DHT22;39461;40.948;73.006;2022-08-05T12:38:05;32.10;59.30
42867;DHT22;39461;40.948;73.006;2022-08-05T12:40:40;32.00;59.50
42867;DHT22;39461;40.948;73.006;2022-08-05T12:43:51;32.00;60.00
42867;DHT22;39461;40.948;73.006;2022-08-05T12:46:23;32.00;60.30
42867;DHT22;39461;40.948;73.006;2022-08-05T12:54:24;31.90;59.10
42867;DHT22;39461;40.948;73.006;2022-08-05T12:57:05;31.90;59.40
42867;DHT22;39461;40.948;73.006;2022-08-05T12:59:48;31.80;59.40
42867;DHT22;39461;40.948;73.006;2022-08-05T13:02:25;31.80;59.90
42867;DHT22;39461;40.948;73.006;2022-08-05T13:04:54;31.80;60.30
42867;DHT22;39461;40.948;73.006;2022-08-05T13:07:23;31.70;60.00
42867;DHT22;39461;40.948;73.006;2022-08-05T13:09:55;31.60;59.90
42867;DHT22;39461;40.948;73.006;2022-08-05T13:12:39;31.60;59.80
42867;DHT22;39461;40.948;73.006;2022-08-05T13:15:12;31.50;59.70
42867;DHT22;39461;40.948;73.006;2022-08-05T13:17:54;31.50;59.70
42867;DHT22;39461;40.948;73.006;2022-08-05T13:20:21;31.30;59.60
42867;DHT22;39461;40.948;73.006;2022-08-05T13:22:55;31.30;59.80
42867;DHT22;39461;40.948;73.006;2022-08-05T13:25:28;31.10;59.90
42867;DHT22;39461;40.948;73.006;2022-08-05T13:28:05;31.10;60.30
42867;DHT22;39461;40.948;73.006;2022-08-05T13:30:41;31.00;60.50
42867;DHT22;39461;40.948;73.006;2022-08-05T13:33:11;30.90;61.00
42867;DHT22;39461;40.948;73.006;2022-08-05T13:35:44;30.90;61.20
42867;DHT22;39461;40.948;73.006;2022-08-05T13:38:17;30.80;61.30
42867;DHT22;39461;40.948;73.006;2022-08-05T13:40:44;30.80;61.30
42867;DHT22;39461;40.948;73.006;2022-08-05T13:43:18;30.70;61.50
42867;DHT22;39461;40.948;73.006;2022-08-05T13:45:54;30.70;61.10
42867;DHT22;39461;40.948;73.006;2022-08-05T13:48:25;30.70;61.20
42867;DHT22;39461;40.948;73.006;2022-08-05T13:50:52;30.70;61.30
42867;DHT22;39461;40.948;73.006;2022-08-05T13:53:18;30.70;61.60
42867;DHT22;39461;40.948;73.006;2022-08-05T13:55:52;30.70;61.50
42867;DHT22;39461;40.948;73.006;2022-08-05T13:58:25;30.70;61.70
42867;DHT22;39461;40.948;73.006;2022-08-05T14:01:00;30.60;61.40
42867;DHT22;39461;40.948;73.006;2022-08-05T14:03:33;30.60;61.20
42867;DHT22;39461;40.948;73.006;2022-08-05T14:06:06;30.60;61.30
42867;DHT22;39461;40.948;73.006;2022-08-05T14:08:41;30.60;61.70
42867;DHT22;39461;40.948;73.006;2022-08-05T14:11:16;30.60;61.30
42867;DHT22;39461;40.948;73.006;2022-08-05T14:13:50;30.50;61.20
42867;DHT22;39461;40.948;73.006;2022-08-05T14:16:25;30.60;61.50
42867;DHT22;39461;40.948;73.006;2022-08-05T14:19:00;30.50;61.30
42867;DHT22;39461;40.948;73.006;2022-08-05T14:21:36;30.50;60.60
42867;DHT22;39461;40.948;73.006;2022-08-05T14:24:09;30.50;60.80
42867;DHT22;39461;40.948;73.006;2022-08-05T14:26:43;30.40;60.70
42867;DHT22;39461;40.948;73.006;2022-08-05T14:29:16;30.30;60.50
42867;DHT22;39461;40.948;73.006;2022-08-05T14:31:49;30.30;61.10
42867;DHT22;39461;40.948;73.006;2022-08-05T14:34:24;30.30;61.80
42867;DHT22;39461;40.948;73.006;2022-08-05T14:36:58;30.20;62.00
42867;DHT22;39461;40.948;73.006;2022-08-05T14:39:32;30.20;61.70
42867;DHT22;39461;40.948;73.006;2022-08-05T14:42:05;30.10;61.60
42867;DHT22;39461;40.948;73.006;2022-08-05T14:44:39;30.00;61.80
42867;DHT22;39461;40.948;73.006;2022-08-05T14:47:10;30.00;61.80
42867;DHT22;39461;40.948;73.006;2022-08-05T14:49:36;30.00;61.80
42867;DHT22;39461;40.948;73.006;2022-08-05T14:52:09;29.90;62.00
42867;DHT22;39461;40.948;73.006;2022-08-05T14:54:52;29.90;62.10
42867;DHT22;39461;40.948;73.006;2022-08-05T14:57:25;29.90;62.10
42867;DHT22;39461;40.948;73.006;2022-08-05T14:59:55;29.90;61.80
42867;DHT22;39461;40.948;73.006;2022-08-05T15:02:34;29.90;61.70
42867;DHT22;39461;40.948;73.006;2022-08-05T15:05:08;29.80;61.80
42867;DHT22;39461;40.948;73.006;2022-08-05T15:07:41;29.80;62.00
42867;DHT22;39461;40.948;73.006;2022-08-05T15:10:20;29.80;62.10
42867;DHT22;39461;40.948;73.006;2022-08-05T15:12:59;29.70;62.70
42867;DHT22;39461;40.948;73.006;2022-08-05T15:15:29;29.70;63.10
42867;DHT22;39461;40.948;73.006;2022-08-05T15:18:02;29.70;63.50
42867;DHT22;39461;40.948;73.006;2022-08-05T15:20:35;29.60;64.30
42867;DHT22;39461;40.948;73.006;2022-08-05T15:23:10;29.50;64.50
42867;DHT22;39461;40.948;73.006;2022-08-05T15:25:43;29.50;64.30
42867;DHT22;39461;40.948;73.006;2022-08-05T15:28:16;29.40;64.60
42867;DHT22;39461;40.948;73.006;2022-08-05T15:30:49;29.30;64.90
42867;DHT22;39461;40.948;73.006;2022-08-05T15:33:26;29.30;65.20
42867;DHT22;39461;40.948;73.006;2022-08-05T15:35:59;29.30;64.40
42867;DHT22;39461;40.948;73.006;2022-08-05T15:38:33;29.30;64.20
42867;DHT22;39461;40.948;73.006;2022-08-05T15:41:06;29.30;63.90
42867;DHT22;39461;40.948;73.006;2022-08-05T15:43:39;29.20;64.20
42867;DHT22;39461;40.948;73.006;2022-08-05T15:46:12;29.10;64.20
42867;DHT22;39461;40.948;73.006;2022-08-05T15:48:45;29.10;63.80
42867;DHT22;39461;40.948;73.006;2022-08-05T15:51:14;29.00;64.00
42867;DHT22;39461;40.948;73.006;2022-08-05T15:53:44;29.00;64.50
42867;DHT22;39461;40.948;73.006;2022-08-05T15:56:11;28.90;64.60
42867;DHT22;39461;40.948;73.006;2022-08-05T15:58:37;28.80;64.40
42867;DHT22;39461;40.948;73.006;2022-08-05T16:01:11;28.80;65.10
42867;DHT22;39461;40.948;73.006;2022-08-05T16:03:45;28.80;66.60
42867;DHT22;39461;40.948;73.006;2022-08-05T16:06:12;28.70;67.00
42867;DHT22;39461;40.948;73.006;2022-08-05T16:08:39;28.70;67.50
42867;DHT22;39461;40.948;73.006;2022-08-05T16:11:16;28.70;68.10
42867;DHT22;39461;40.948;73.006;2022-08-05T16:13:49;28.60;68.60
42867;DHT22;39461;40.948;73.006;2022-08-05T16:16:22;28.60;68.80
42867;DHT22;39461;40.948;73.006;2022-08-05T16:18:55;28.60;69.40
42867;DHT22;39461;40.948;73.006;2022-08-05T16:21:28;28.50;69.60
42867;DHT22;39461;40.948;73.006;2022-08-05T16:24:01;28.50;69.60
42867;DHT22;39461;40.948;73.006;2022-08-05T16:26:51;28.50;69.80
42867;DHT22;39461;40.948;73.006;2022-08-05T16:29:26;28.50;69.90
42867;DHT22;39461;40.948;73.006;2022-08-05T16:31:59;28.50;70.30
42867;DHT22;39461;40.948;73.006;2022-08-05T16:34:32;28.60;70.30
42867;DHT22;39461;40.948;73.006;2022-08-05T16:37:05;28.50;70.30
42867;DHT22;39461;40.948;73.006;2022-08-05T16:39:38;28.50;70.60
42867;DHT22;39461;40.948;73.006;2022-08-05T16:42:11;28.50;70.80